createdAt,value
2022-10-31T00:03:03.336Z,97248.66
2022-10-31T00:07:55.131Z,97255.94
2022-10-31T00:12:46.931Z,97251.06
2022-10-31T00:17:38.624Z,97253.09
2022-10-31T00:22:30.290Z,97256.00
2022-10-31T00:27:21.958Z,97251.94
2022-10-31T00:32:13.627Z,97243.16
2022-10-31T00:37:05.336Z,97244.16
2022-10-31T00:41:57.009Z,97246.16
2022-10-31T00:46:48.681Z,97236.19
2022-10-31T00:51:40.352Z,97236.56
2022-10-31T00:56:32.030Z,97234.88
2022-10-31T01:01:23.859Z,97233.28
2022-10-31T01:06:16.796Z,97227.16
2022-10-31T01:11:18.031Z,97230.38
2022-10-31T01:16:14.892Z,97232.22
2022-10-31T01:21:13.701Z,97224.91
2022-10-31T01:26:13.198Z,97228.13
2022-10-31T01:31:10.218Z,97225.72
2022-10-31T01:36:02.742Z,97223.09
2022-10-31T01:40:54.431Z,97227.53
2022-10-31T01:45:54.771Z,97227.34
2022-10-31T01:50:52.715Z,97223.59
2022-10-31T01:55:47.434Z,97235.09
2022-10-31T02:00:42.389Z,97225.94
2022-10-31T02:05:35.446Z,97235.69
2022-10-31T02:10:28.513Z,97245.44
2022-10-31T02:15:20.389Z,97240.09
2022-10-31T02:20:25.062Z,97233.81
2022-10-31T02:25:42.228Z,97225.09
2022-10-31T02:30:58.994Z,97232.00
2022-10-31T02:36:21.293Z,97225.31
2022-10-31T02:41:38.730Z,97224.78
2022-10-31T02:46:46.266Z,97221.97
2022-10-31T02:51:40.010Z,97226.84
2022-10-31T02:56:31.776Z,97218.19
2022-10-31T03:01:53.760Z,97216.53
2022-10-31T03:07:31.823Z,97214.44
2022-10-31T03:12:54.970Z,97215.69
2022-10-31T03:18:08.504Z,97220.84
2022-10-31T03:23:05.237Z,97215.97
2022-10-31T03:28:00.589Z,97220.44
2022-10-31T03:32:56.927Z,97223.81
2022-10-31T03:37:52.915Z,97205.31
2022-10-31T03:42:54.976Z,97203.03
2022-10-31T03:47:46.828Z,97189.16
2022-10-31T03:53:06.944Z,97188.28
2022-10-31T03:58:06.022Z,97178.03
2022-10-31T04:03:12.551Z,97183.19
2022-10-31T04:08:11.655Z,97175.34
2022-10-31T04:13:11.082Z,97171.53
2022-10-31T04:18:06.697Z,97156.97
2022-10-31T04:22:58.428Z,97162.19
2022-10-31T04:27:50.111Z,97154.09
2022-10-31T04:32:41.812Z,97161.06
2022-10-31T04:37:33.482Z,97152.16
2022-10-31T04:42:25.188Z,97148.84
2022-10-31T04:47:16.854Z,97155.84
2022-10-31T04:52:09.021Z,97147.13
2022-10-31T04:57:00.696Z,97153.34
